createdAt,value
2023-02-25T00:01:22.080Z,4.90
2023-02-25T00:03:53.029Z,4.90
2023-02-25T00:06:23.104Z,4.90
2023-02-25T00:08:52.459Z,4.90
2023-02-25T00:11:21.356Z,4.90
2023-02-25T00:13:50.222Z,4.90
2023-02-25T00:16:18.717Z,4.90
2023-02-25T00:18:48.831Z,4.80
2023-02-25T00:21:17.783Z,4.80
2023-02-25T00:23:47.861Z,4.90
2023-02-25T00:26:16.951Z,4.90
2023-02-25T00:28:44.957Z,4.80
2023-02-25T00:31:15.516Z,4.80
2023-02-25T00:33:44.524Z,4.80
2023-02-25T00:36:20.293Z,4.80
2023-02-25T00:38:49.467Z,4.90
2023-02-25T00:41:26.821Z,5.00
2023-02-25T00:43:56.348Z,5.10
2023-02-25T00:46:24.963Z,5.00
2023-02-25T00:48:53.311Z,5.10
2023-02-25T00:51:25.021Z,5.00
2023-02-25T00:53:53.735Z,5.00
2023-02-25T00:56:22.113Z,5.10
2023-02-25T00:58:52.217Z,5.10
2023-02-25T01:01:23.603Z,5.10
2023-02-25T01:03:53.399Z,5.00
2023-02-25T01:06:23.218Z,5.10
2023-02-25T01:08:51.649Z,4.90
2023-02-25T01:11:24.548Z,4.90
2023-02-25T01:13:52.649Z,5.00
2023-02-25T01:16:23.273Z,5.00
2023-02-25T01:18:53.955Z,4.90
2023-02-25T01:21:26.781Z,4.90
2023-02-25T01:23:58.703Z,4.90
2023-02-25T01:26:27.809Z,4.90
2023-02-25T01:28:56.161Z,4.90
2023-02-25T01:31:29.302Z,4.80
2023-02-25T01:33:58.925Z,4.70
2023-02-25T01:36:30.351Z,4.80
2023-02-25T01:38:58.839Z,4.90
2023-02-25T01:41:28.455Z,4.90
2023-02-25T01:44:09.776Z,4.90
2023-02-25T01:46:38.514Z,4.90
2023-02-25T01:49:10.491Z,4.90
2023-02-25T01:51:40.176Z,4.80
2023-02-25T01:54:12.069Z,4.80
2023-02-25T01:56:43.062Z,4.60
2023-02-25T01:59:11.659Z,4.60
2023-02-25T02:01:41.602Z,4.50
2023-02-25T02:04:12.666Z,4.60
2023-02-25T02:06:44.328Z,4.60
2023-02-25T02:09:15.153Z,4.50
2023-02-25T02:11:43.787Z,4.60
2023-02-25T02:14:16.134Z,4.60
2023-02-25T02:17:06.788Z,4.60
2023-02-25T02:19:55.715Z,4.60
2023-02-25T02:22:33.271Z,4.50
2023-02-25T02:25:58.059Z,4.50
2023-02-25T02:28:49.961Z,4.50
2023-02-25T02:31:39.977Z,4.60
2023-02-25T02:34:19.803Z,4.60
2023-02-25T02:36:57.370Z,4.60
2023-02-25T02:39:31.831Z,4.60
2023-02-25T02:42:04.172Z,4.70
2023-02-25T02:44:38.450Z,4.70
2023-02-25T02:47:13.339Z,4.60
2023-02-25T02:49:47.039Z,4.70
2023-02-25T02:52:19.426Z,4.70
2023-02-25T02:54:55.278Z,4.70
2023-02-25T02:57:27.940Z,4.60
2023-02-25T03:00:01.449Z,4.50
2023-02-25T03:02:36.215Z,4.50
2023-02-25T03:05:07.297Z,4.60
2023-02-25T03:07:41.240Z,4.60
2023-02-25T03:10:14.667Z,4.60
2023-02-25T03:12:42.700Z,4.70
2023-02-25T03:15:11.752Z,4.80
2023-02-25T03:17:45.690Z,4.70
2023-02-25T03:20:18.101Z,4.60
2023-02-25T03:22:50.880Z,4.60
2023-02-25T03:25:23.284Z,4.50
2023-02-25T03:27:53.541Z,4.50
2023-02-25T03:30:29.266Z,4.50
2023-02-25T03:33:04.191Z,4.30
2023-02-25T03:35:35.734Z,4.30
2023-02-25T03:38:07.685Z,4.30
2023-02-25T03:40:38.691Z,4.40
2023-02-25T03:43:10.619Z,4.40
2023-02-25T03:45:40.603Z,4.30
2023-02-25T03:48:11.814Z,4.30
2023-02-25T03:50:45.668Z,4.30
2023-02-25T03:53:14.140Z,4.30
2023-02-25T03:55:55.040Z,4.40
2023-02-25T03:58:23.440Z,4.50
2023-02-25T04:00:57.519Z,4.50
2023-02-25T04:03:27.478Z,4.40
2023-02-25T04:05:55.857Z,4.50
2023-02-25T04:08:23.977Z,4.50
2023-02-25T04:10:52.310Z,4.30
2023-02-25T04:13:21.010Z,4.30
2023-02-25T04:15:50.623Z,4.30
2023-02-25T04:18:18.840Z,4.30
2023-02-25T04:20:48.249Z,4.30
2023-02-25T04:23:16.794Z,4.40
2023-02-25T04:25:44.945Z,4.40
2023-02-25T04:28:13.285Z,4.40
2023-02-25T04:30:41.470Z,4.50
2023-02-25T04:33:11.510Z,4.50
2023-02-25T04:35:39.717Z,4.50
2023-02-25T04:38:09.434Z,4.40
2023-02-25T04:40:38.076Z,4.20
2023-02-25T04:43:06.020Z,4.20
2023-02-25T04:45:34.062Z,4.30
2023-02-25T04:48:02.089Z,4.30
2023-02-25T04:50:30.200Z,4.30
2023-02-25T04:53:02.129Z,4.30
2023-02-25T04:55:32.594Z,4.30
2023-02-25T04:58:01.275Z,4.30
2023-02-25T05:00:29.684Z,4.30
2023-02-25T05:02:58.607Z,4.40
2023-02-25T05:05:26.668Z,4.30
2023-02-25T05:07:54.729Z,4.30
2023-02-25T05:10:22.742Z,4.30
2023-02-25T05:12:52.130Z,4.30
2023-02-25T05:15:20.174Z,4.30
2023-02-25T05:17:48.973Z,4.30
2023-02-25T05:20:17.352Z,4.40
2023-02-25T05:22:45.389Z,4.40
2023-02-25T05:25:13.420Z,4.40
2023-02-25T05:27:41.475Z,4.30
2023-02-25T05:30:12.689Z,4.30
2023-02-25T05:32:41.361Z,4.30
2023-02-25T05:35:12.423Z,4.30
2023-02-25T05:37:40.414Z,4.30
2023-02-25T05:40:10.178Z,4.30
2023-02-25T05:42:38.438Z,4.30
2023-02-25T05:45:07.524Z,4.30
2023-02-25T05:47:37.258Z,4.30
2023-02-25T05:50:06.043Z,4.30
2023-02-25T05:52:34.009Z,4.30
2023-02-25T05:55:02.038Z,4.40
2023-02-25T05:57:30.290Z,4.50
2023-02-25T05:59:58.262Z,4.60
2023-02-25T06:02:26.565Z,4.40
2023-02-25T06:04:56.227Z,4.40
2023-02-25T06:07:24.155Z,4.40
2023-02-25T06:09:52.212Z,4.50
2023-02-25T06:12:23.194Z,4.40
2023-02-25T06:14:51.241Z,4.50
2023-02-25T06:17:19.243Z,4.40
2023-02-25T06:19:47.366Z,4.40
2023-02-25T06:22:16.733Z,4.40
2023-02-25T06:24:45.136Z,4.30
2023-02-25T06:27:13.814Z,4.40
2023-02-25T06:29:42.528Z,4.30
2023-02-25T06:32:11.540Z,4.40
2023-02-25T06:34:40.184Z,4.40
2023-02-25T06:37:09.223Z,4.30
2023-02-25T06:39:38.573Z,4.40
2023-02-25T06:42:06.683Z,4.40
2023-02-25T06:44:34.756Z,4.50
2023-02-25T06:47:02.764Z,4.50
2023-02-25T06:49:31.455Z,4.50
2023-02-25T06:51:59.369Z,4.50
2023-02-25T06:54:27.925Z,4.40
2023-02-25T06:56:57.339Z,4.50
2023-02-25T06:59:25.355Z,4.50
2023-02-25T07:01:53.486Z,4.50
2023-02-25T07:04:21.551Z,4.50
2023-02-25T07:06:49.658Z,4.50
2023-02-25T07:09:17.806Z,4.50
2023-02-25T07:11:45.832Z,4.50
2023-02-25T07:14:16.328Z,4.60
2023-02-25T07:16:44.235Z,4.70
2023-02-25T07:19:15.013Z,4.70
2023-02-25T07:21:43.539Z,4.70
2023-02-25T07:24:12.575Z,4.80
2023-02-25T07:26:41.210Z,4.80
2023-02-25T07:29:09.241Z,4.80
2023-02-25T07:31:38.734Z,4.70
2023-02-25T07:34:07.388Z,4.70
2023-02-25T07:36:37.959Z,4.80
2023-02-25T07:39:08.436Z,4.80
2023-02-25T07:41:37.514Z,4.60
2023-02-25T07:44:06.652Z,4.70
2023-02-25T07:46:34.812Z,4.70
2023-02-25T07:49:04.321Z,4.70
2023-02-25T07:51:32.299Z,4.70
2023-02-25T07:54:00.683Z,4.70
2023-02-25T07:56:31.088Z,4.70
2023-02-25T07:58:59.399Z,4.70
2023-02-25T08:01:29.383Z,4.70
2023-02-25T08:03:59.569Z,4.70
2023-02-25T08:06:29.358Z,4.50
2023-02-25T08:08:57.474Z,4.40
2023-02-25T08:11:27.469Z,4.30
2023-02-25T08:13:55.858Z,4.30
2023-02-25T08:16:24.236Z,4.30
2023-02-25T08:18:53.432Z,4.30
2023-02-25T08:21:23.417Z,4.30
2023-02-25T08:23:54.210Z,4.30
2023-02-25T08:26:23.615Z,4.30
2023-02-25T08:28:52.521Z,4.40
2023-02-25T08:31:21.283Z,4.60
2023-02-25T08:33:52.776Z,4.70
2023-02-25T08:36:23.457Z,4.80
2023-02-25T08:38:53.592Z,4.70
2023-02-25T08:41:23.344Z,4.60
2023-02-25T08:43:54.445Z,4.60
2023-02-25T08:46:23.606Z,4.60
2023-02-25T08:48:52.923Z,4.70
2023-02-25T08:51:22.461Z,4.50
2023-02-25T08:53:52.266Z,4.30
2023-02-25T08:56:20.347Z,4.20
2023-02-25T08:58:48.390Z,4.20
2023-02-25T09:01:17.826Z,4.30
2023-02-25T09:03:53.536Z,4.20
2023-02-25T09:06:24.421Z,4.20
2023-02-25T09:08:56.022Z,4.40
2023-02-25T09:11:25.927Z,4.50
2023-02-25T09:13:55.953Z,4.60
2023-02-25T09:16:24.102Z,4.60
2023-02-25T09:18:52.521Z,4.70
2023-02-25T09:21:21.234Z,4.80
2023-02-25T09:23:51.369Z,4.90
2023-02-25T09:26:21.769Z,4.70
2023-02-25T09:28:50.780Z,4.70
2023-02-25T09:31:20.013Z,4.90
2023-02-25T09:33:48.128Z,5.00
2023-02-25T09:36:18.500Z,5.20
2023-02-25T09:38:48.000Z,5.30
2023-02-25T09:41:26.284Z,5.10
2023-02-25T09:44:03.524Z,5.10
2023-02-25T09:46:33.488Z,5.10
2023-02-25T09:49:06.199Z,5.10
2023-02-25T09:51:37.742Z,4.90
2023-02-25T09:54:16.723Z,4.90
2023-02-25T09:56:46.511Z,4.90
2023-02-25T09:59:16.920Z,4.90
2023-02-25T10:01:50.281Z,4.90
2023-02-25T10:04:30.820Z,4.90
2023-02-25T10:07:07.490Z,4.90
2023-02-25T10:09:42.767Z,5.00
2023-02-25T10:12:21.776Z,4.90
2023-02-25T10:15:14.014Z,5.00
2023-02-25T10:17:56.301Z,5.00
2023-02-25T10:20:43.819Z,4.80
2023-02-25T10:23:25.396Z,4.80
2023-02-25T10:25:58.015Z,4.90
2023-02-25T10:28:30.723Z,4.90
2023-02-25T10:31:03.147Z,4.70
2023-02-25T10:33:35.173Z,4.80
2023-02-25T10:36:09.242Z,4.90
2023-02-25T10:38:42.904Z,5.00
2023-02-25T10:41:10.994Z,5.00
2023-02-25T10:43:40.508Z,4.90
2023-02-25T10:46:14.442Z,5.00
2023-02-25T10:48:45.127Z,5.10
2023-02-25T10:51:14.691Z,5.10
2023-02-25T10:54:03.443Z,5.10
2023-02-25T10:56:39.883Z,5.20
2023-02-25T10:59:27.388Z,5.00
2023-02-25T11:01:57.782Z,5.00
2023-02-25T11:04:30.709Z,5.00
2023-02-25T11:06:58.843Z,4.90
2023-02-25T11:09:38.188Z,5.00
2023-02-25T11:12:19.884Z,5.20
2023-02-25T11:14:49.290Z,5.40
2023-02-25T11:17:20.299Z,5.50
2023-02-25T11:19:51.709Z,5.50
2023-02-25T11:22:22.675Z,5.50
2023-02-25T11:25:00.640Z,5.50
2023-02-25T11:27:38.703Z,5.50
2023-02-25T11:30:20.273Z,5.30
2023-02-25T11:32:53.659Z,5.40
2023-02-25T11:35:29.886Z,5.60
2023-02-25T11:38:13.148Z,5.80
2023-02-25T11:40:44.181Z,5.80
2023-02-25T11:43:19.731Z,5.60
2023-02-25T11:45:53.900Z,5.40
2023-02-25T11:48:26.221Z,5.30
2023-02-25T11:51:13.773Z,5.40
2023-02-25T11:53:55.186Z,5.50
2023-02-25T11:56:29.292Z,5.50
2023-02-25T11:59:12.672Z,5.60
2023-02-25T12:02:03.204Z,5.30
2023-02-25T12:04:56.882Z,5.20
2023-02-25T12:08:11.912Z,5.20
2023-02-25T12:11:22.484Z,5.20
2023-02-25T12:14:34.032Z,5.30
2023-02-25T12:17:26.674Z,5.30
2023-02-25T12:20:37.683Z,5.30
2023-02-25T12:23:36.292Z,5.40
2023-02-25T12:26:12.461Z,5.00
2023-02-25T12:29:05.187Z,5.00
2023-02-25T12:35:17.024Z,4.90
2023-02-25T12:38:20.327Z,4.90
2023-02-25T12:41:10.219Z,5.00
2023-02-25T12:43:48.771Z,5.10
2023-02-25T12:46:27.610Z,5.10
2023-02-25T12:49:25.017Z,5.20
2023-02-25T12:52:23.119Z,5.10
2023-02-25T12:55:17.045Z,5.10
2023-02-25T12:57:51.818Z,5.10
2023-02-25T13:00:52.823Z,5.20
2023-02-25T13:03:34.076Z,5.20
2023-02-25T13:06:17.588Z,5.30
2023-02-25T13:09:02.259Z,5.60
2023-02-25T13:12:10.081Z,5.70
2023-02-25T13:14:53.591Z,5.70
2023-02-25T13:17:53.833Z,5.50
2023-02-25T13:20:36.533Z,5.50
2023-02-25T13:23:17.185Z,5.60
2023-02-25T13:25:59.619Z,5.70
2023-02-25T13:28:46.001Z,5.70
2023-02-25T13:31:20.738Z,5.70
2023-02-25T13:34:03.664Z,5.60
2023-02-25T13:37:00.036Z,5.60
2023-02-25T13:39:45.453Z,5.70
2023-02-25T13:42:28.182Z,5.90
2023-02-25T13:45:35.071Z,6.00
2023-02-25T13:48:18.015Z,6.00
2023-02-25T13:51:04.376Z,6.00
2023-02-25T13:54:00.072Z,6.10
2023-02-25T13:56:46.072Z,6.10
2023-02-25T13:59:39.588Z,6.20
2023-02-25T14:02:27.202Z,6.30
2023-02-25T14:05:23.662Z,6.20
2023-02-25T14:08:25.712Z,6.10
2023-02-25T14:11:01.151Z,6.00
2023-02-25T14:13:59.192Z,6.00
2023-02-25T14:16:55.494Z,6.00
2023-02-25T14:19:44.792Z,6.00
2023-02-25T14:22:25.760Z,6.20
2023-02-25T14:25:03.756Z,6.10
2023-02-25T14:27:42.481Z,6.10
2023-02-25T14:30:22.554Z,6.20
2023-02-25T14:33:01.603Z,6.10
2023-02-25T14:35:55.085Z,6.10
2023-02-25T14:38:30.437Z,6.10
2023-02-25T14:41:22.886Z,6.10
2023-02-25T14:43:54.082Z,6.10
2023-02-25T14:46:32.801Z,6.20
2023-02-25T14:49:06.439Z,6.20
2023-02-25T14:52:03.989Z,6.10
2023-02-25T14:54:51.399Z,6.20
2023-02-25T14:58:00.340Z,6.20
2023-02-25T15:01:13.509Z,6.20
2023-02-25T15:04:20.146Z,6.30
2023-02-25T15:07:06.134Z,6.30
2023-02-25T15:09:39.288Z,6.40
2023-02-25T15:12:33.278Z,6.30
2023-02-25T15:15:23.029Z,6.20
2023-02-25T15:18:33.494Z,6.10
2023-02-25T15:21:30.498Z,6.20
2023-02-25T15:24:00.959Z,6.10
2023-02-25T15:26:41.573Z,6.10
2023-02-25T15:29:21.270Z,6.00
2023-02-25T15:32:16.756Z,6.00
2023-02-25T15:34:59.343Z,6.00
2023-02-25T15:37:33.766Z,6.00
2023-02-25T15:40:50.793Z,6.00
2023-02-25T15:43:43.516Z,5.90
2023-02-25T15:46:47.931Z,6.00
2023-02-25T15:49:33.384Z,6.00
2023-02-25T15:52:04.648Z,6.00
2023-02-25T15:54:51.032Z,6.00
2023-02-25T15:57:38.953Z,6.10
2023-02-25T16:00:50.909Z,5.90
2023-02-25T16:03:42.141Z,5.80
2023-02-25T16:06:17.638Z,5.80
2023-02-25T16:08:49.440Z,5.80
2023-02-25T16:11:25.792Z,5.80
2023-02-25T16:13:54.954Z,5.80
2023-02-25T16:16:25.375Z,5.80
2023-02-25T16:18:54.326Z,5.80
2023-02-25T16:21:27.111Z,5.80
2023-02-25T16:23:55.755Z,5.80
2023-02-25T16:26:45.122Z,5.80
2023-02-25T16:29:30.015Z,5.80
2023-02-25T16:32:05.193Z,5.80
2023-02-25T16:34:40.092Z,5.80
2023-02-25T16:37:14.018Z,5.80
2023-02-25T16:39:42.232Z,5.70
2023-02-25T16:42:14.033Z,5.70
2023-02-25T16:44:45.558Z,5.70
2023-02-25T16:47:24.591Z,5.70
2023-02-25T16:49:54.456Z,5.70
2023-02-25T16:52:28.032Z,5.70
2023-02-25T16:54:59.438Z,5.80
2023-02-25T16:57:28.312Z,5.80
2023-02-25T17:00:17.934Z,5.80
2023-02-25T17:02:49.238Z,5.70
2023-02-25T17:05:27.150Z,5.60
2023-02-25T17:07:59.486Z,5.50
2023-02-25T17:10:29.989Z,5.40
2023-02-25T17:12:58.876Z,5.40
2023-02-25T17:15:29.702Z,5.40
2023-02-25T17:18:04.161Z,5.40
2023-02-25T17:20:32.209Z,5.40
2023-02-25T17:23:04.263Z,5.40
2023-02-25T17:25:38.260Z,5.40
2023-02-25T17:28:08.510Z,5.50
2023-02-25T17:30:42.293Z,5.50
2023-02-25T17:33:25.782Z,5.50
2023-02-25T17:35:58.263Z,5.50
2023-02-25T17:38:28.989Z,5.50
2023-02-25T17:40:59.128Z,5.50
2023-02-25T17:43:34.228Z,5.40
2023-02-25T17:46:04.393Z,5.30
2023-02-25T17:48:41.105Z,5.30
2023-02-25T17:51:10.597Z,5.10
2023-02-25T17:53:42.632Z,5.10
2023-02-25T17:56:22.714Z,5.10
2023-02-25T17:58:51.748Z,5.10
2023-02-25T18:01:26.447Z,5.10
2023-02-25T18:03:56.685Z,5.00
2023-02-25T18:06:42.966Z,5.10
2023-02-25T18:09:40.179Z,5.10
2023-02-25T18:12:21.257Z,5.10
2023-02-25T18:14:54.392Z,5.10
2023-02-25T18:17:26.765Z,5.10
2023-02-25T18:19:57.419Z,5.10
2023-02-25T18:22:28.995Z,5.10
2023-02-25T18:24:59.081Z,5.10
2023-02-25T18:27:30.313Z,5.10
2023-02-25T18:30:01.514Z,5.00
2023-02-25T18:32:29.578Z,4.90
2023-02-25T18:34:59.012Z,4.90
2023-02-25T18:37:30.218Z,4.90
2023-02-25T18:39:58.251Z,5.00
2023-02-25T18:42:26.266Z,4.90
2023-02-25T18:44:54.306Z,4.90
2023-02-25T18:47:22.316Z,4.90
2023-02-25T18:49:50.495Z,4.90
2023-02-25T18:52:23.513Z,4.90
2023-02-25T18:54:51.840Z,4.90
2023-02-25T18:57:23.454Z,4.90
2023-02-25T18:59:51.707Z,4.90
2023-02-25T19:02:27.452Z,4.90
2023-02-25T19:04:55.890Z,4.90
2023-02-25T19:07:27.697Z,4.90
2023-02-25T19:09:56.836Z,4.90
2023-02-25T19:12:26.644Z,5.00
2023-02-25T19:14:58.708Z,4.90
2023-02-25T19:17:27.004Z,5.00
2023-02-25T19:19:55.451Z,5.00
2023-02-25T19:22:24.431Z,4.90
2023-02-25T19:24:53.931Z,4.90
2023-02-25T19:27:24.175Z,4.80
2023-02-25T19:29:54.172Z,4.80
2023-02-25T19:32:23.200Z,4.80
2023-02-25T19:34:52.221Z,4.70
2023-02-25T19:37:21.670Z,4.60
2023-02-25T19:39:49.792Z,4.70
2023-02-25T19:42:19.200Z,4.80
2023-02-25T19:44:47.371Z,4.80
2023-02-25T19:47:15.433Z,4.80
2023-02-25T19:49:43.516Z,4.80
2023-02-25T19:52:11.594Z,4.80
2023-02-25T19:54:39.859Z,4.80
2023-02-25T19:57:08.121Z,4.80
2023-02-25T19:59:37.531Z,4.80
2023-02-25T20:02:05.595Z,4.80
2023-02-25T20:04:33.742Z,4.80
2023-02-25T20:07:01.801Z,4.90
2023-02-25T20:09:29.791Z,4.90
2023-02-25T20:12:00.549Z,4.90
2023-02-25T20:14:29.024Z,4.90
2023-02-25T20:16:59.543Z,5.00
2023-02-25T20:19:30.190Z,4.90
2023-02-25T20:21:58.308Z,4.90
2023-02-25T20:24:26.610Z,4.90
2023-02-25T20:26:56.397Z,4.90
2023-02-25T20:29:26.470Z,4.90
2023-02-25T20:31:54.733Z,4.90
2023-02-25T20:34:26.203Z,4.90
2023-02-25T20:36:58.018Z,4.90
2023-02-25T20:39:51.119Z,4.90
2023-02-25T20:42:21.282Z,4.90
2023-02-25T20:44:51.467Z,4.90
2023-02-25T20:47:22.192Z,4.90
2023-02-25T20:49:52.523Z,4.80
2023-02-25T20:52:20.945Z,4.70
2023-02-25T20:54:49.910Z,4.70
2023-02-25T20:57:19.758Z,4.70
2023-02-25T20:59:49.183Z,4.60
2023-02-25T21:02:18.095Z,4.60
2023-02-25T21:04:46.602Z,4.60
2023-02-25T21:07:16.607Z,4.60
2023-02-25T21:09:44.654Z,4.50
2023-02-25T21:12:12.667Z,4.60
2023-02-25T21:14:40.703Z,4.50
2023-02-25T21:17:13.436Z,4.50
2023-02-25T21:19:44.187Z,4.60
2023-02-25T21:22:12.306Z,4.60
2023-02-25T21:24:43.759Z,4.60
2023-02-25T21:27:12.160Z,4.60
2023-02-25T21:29:40.169Z,4.50
2023-02-25T21:32:08.518Z,4.50
2023-02-25T21:34:37.109Z,4.20
2023-02-25T21:37:05.138Z,4.10
2023-02-25T21:39:33.269Z,4.00
2023-02-25T21:42:02.747Z,4.00
2023-02-25T21:44:30.900Z,4.00
2023-02-25T21:46:59.115Z,4.10
2023-02-25T21:49:30.868Z,4.00
2023-02-25T21:51:59.784Z,4.00
2023-02-25T21:54:27.778Z,4.00
2023-02-25T21:57:01.273Z,3.90
2023-02-25T21:59:30.797Z,3.80
2023-02-25T22:01:58.787Z,3.80
2023-02-25T22:04:29.368Z,3.80
2023-02-25T22:07:00.048Z,3.80
2023-02-25T22:09:28.163Z,3.70
2023-02-25T22:11:59.367Z,3.60
2023-02-25T22:14:27.385Z,3.60
2023-02-25T22:16:56.817Z,3.60
2023-02-25T22:19:24.859Z,3.60
2023-02-25T22:21:52.965Z,3.70
2023-02-25T22:24:21.042Z,3.60
2023-02-25T22:26:49.166Z,3.60
2023-02-25T22:29:17.232Z,3.50
2023-02-25T22:31:45.212Z,3.50
2023-02-25T22:34:14.690Z,3.50
2023-02-25T22:36:42.697Z,3.50
2023-02-25T22:39:11.427Z,3.50
2023-02-25T22:41:39.778Z,3.50
2023-02-25T22:44:07.900Z,3.50
2023-02-25T22:46:37.622Z,3.50
2023-02-25T22:49:06.629Z,3.50
2023-02-25T22:51:40.426Z,3.50
2023-02-25T22:54:08.459Z,3.50
2023-02-25T22:56:36.492Z,3.50
2023-02-25T22:59:04.780Z,3.50
2023-02-25T23:01:32.866Z,3.50
2023-02-25T23:04:01.747Z,3.50
2023-02-25T23:06:43.028Z,3.50
2023-02-25T23:09:13.754Z,3.50
2023-02-25T23:11:43.828Z,3.60
2023-02-25T23:14:12.112Z,3.60
2023-02-25T23:16:41.859Z,3.50
2023-02-25T23:19:13.499Z,3.50
2023-02-25T23:21:41.472Z,3.50
2023-02-25T23:24:13.569Z,3.50
2023-02-25T23:26:44.066Z,3.50
2023-02-25T23:29:13.244Z,3.50
2023-02-25T23:31:44.454Z,3.40
2023-02-25T23:34:14.508Z,3.30
2023-02-25T23:36:44.265Z,3.30
2023-02-25T23:39:14.019Z,3.30
2023-02-25T23:41:44.124Z,3.40
2023-02-25T23:44:13.662Z,3.40
2023-02-25T23:46:45.030Z,3.50
2023-02-25T23:49:15.448Z,3.50
2023-02-25T23:51:44.622Z,3.50
2023-02-25T23:54:15.769Z,3.40
2023-02-25T23:56:45.507Z,3.40
2023-02-25T23:59:14.430Z,3.40
